Time;durP1;ratioP1;P1;durP2;ratioP2;P2;SDS_P1;SDS_P2;PMS_P1;PMS_P2;Temp;Humidity;BMP_temperature;BMP_pressure;BME280_temperature;BME280_humidity;BME280_pressure;Samples;Min_cycle;Max_cycle;Signal;HPM_P1;HPM_P2
2023/01/28 00:00:32;;;;;;;18.20;8.33;;;;;0.80;96632.00;;;;8300668;28;20226;-73
2023/01/28 00:04:37;;;;;;;25.63;10.50;;;;;0.90;96641.00;;;;8298085;28;20230;-73
2023/01/28 00:08:40;;;;;;;23.40;9.80;;;;;0.90;96643.00;;;;8298812;28;20250;-72
2023/01/28 00:12:45;;;;;;;18.33;7.83;;;;;1.00;96640.00;;;;8299599;28;20616;-73
2023/01/28 00:16:51;;;;;;;21.40;9.03;;;;;1.00;96640.00;;;;8298872;28;20330;-73
2023/01/28 00:21:04;;;;;;;17.33;7.10;;;;;1.00;96645.00;;;;8298639;28;20679;-73
2023/01/28 00:25:10;;;;;;;15.40;6.97;;;;;1.00;96649.00;;;;8298752;28;20605;-73
2023/01/28 00:29:13;;;;;;;19.63;7.83;;;;;1.00;96653.00;;;;8297917;28;20672;-73
2023/01/28 00:33:17;;;;;;;16.37;7.50;;;;;1.00;96648.00;;;;8298699;28;20198;-73
2023/01/28 00:37:24;;;;;;;19.93;7.57;;;;;1.00;96647.00;;;;8298226;28;20208;-72
2023/01/28 00:41:30;;;;;;;15.33;7.57;;;;;1.00;96640.00;;;;8297555;28;20644;-73
2023/01/28 00:45:37;;;;;;;20.47;8.13;;;;;1.10;96655.00;;;;8298364;28;20205;-73
2023/01/28 00:49:44;;;;;;;18.20;8.50;;;;;1.00;96644.00;;;;8298472;28;20187;-73
2023/01/28 00:53:51;;;;;;;18.57;7.57;;;;;1.10;96651.00;;;;8297993;28;20210;-73
2023/01/28 00:57:54;;;;;;;17.20;7.87;;;;;1.10;96650.00;;;;8299295;28;20219;-73
2023/01/28 01:02:10;;;;;;;19.43;8.50;;;;;1.10;96658.00;;;;8304212;28;20206;-73
2023/01/28 01:06:15;;;;;;;21.27;9.23;;;;;1.20;96655.00;;;;8302602;28;20200;-73
2023/01/28 01:10:24;;;;;;;17.50;8.37;;;;;1.20;96656.00;;;;8303480;28;20559;-73
2023/01/28 01:14:27;;;;;;;20.63;8.70;;;;;1.10;96650.00;;;;8303525;28;20543;-73
2023/01/28 01:18:33;;;;;;;16.87;8.47;;;;;1.10;96661.00;;;;8303983;28;20278;-72
2023/01/28 01:22:37;;;;;;;15.90;8.07;;;;;1.10;96662.00;;;;8300169;28;20365;-72
2023/01/28 01:26:41;;;;;;;18.80;8.40;;;;;1.10;96669.00;;;;8304180;28;20194;-72
2023/01/28 01:30:44;;;;;;;15.47;6.80;;;;;1.10;96672.00;;;;8303392;28;20240;-72
2023/01/28 01:34:52;;;;;;;19.17;9.60;;;;;1.20;96674.00;;;;8304248;28;20215;-72
2023/01/28 01:38:58;;;;;;;20.60;9.40;;;;;1.10;96680.00;;;;8303911;28;20222;-73
2023/01/28 01:43:17;;;;;;;23.27;9.83;;;;;1.10;96673.00;;;;8299644;28;20284;-71
2023/01/28 01:47:25;;;;;;;19.40;9.00;;;;;1.10;96672.00;;;;8302534;28;20200;-72
2023/01/28 01:51:32;;;;;;;21.50;9.03;;;;;1.10;96676.00;;;;8303127;28;20199;-72
2023/01/28 01:55:36;;;;;;;26.87;9.20;;;;;1.10;96679.00;;;;8302587;28;20195;-72
2023/01/28 01:59:43;;;;;;;19.97;9.70;;;;;1.10;96671.00;;;;8301383;28;20278;-72
2023/01/28 02:03:53;;;;;;;20.37;8.23;;;;;1.00;96676.00;;;;8302960;28;20269;-72
2023/01/28 02:08:19;;;;;;;19.27;8.67;;;;;1.00;96677.00;;;;8301791;28;20251;-72
2023/01/28 02:12:27;;;;;;;17.43;8.67;;;;;1.00;96673.00;;;;8303133;28;20285;-72
2023/01/28 02:16:33;;;;;;;21.83;9.23;;;;;1.00;96683.00;;;;8302976;28;20212;-72
2023/01/28 02:20:59;;;;;;;18.07;7.67;;;;;1.00;96687.00;;;;8302423;28;20226;-71
2023/01/28 02:25:43;;;;;;;17.60;8.00;;;;;1.00;96686.00;;;;8301217;28;20190;-71
2023/01/28 02:29:56;;;;;;;18.37;8.67;;;;;1.00;96690.00;;;;8298570;28;20561;-72
2023/01/28 02:34:08;;;;;;;17.00;8.07;;;;;1.10;96690.00;;;;8300968;28;20225;-72
2023/01/28 02:38:16;;;;;;;14.03;7.33;;;;;1.00;96700.00;;;;8301183;28;20206;-72
2023/01/28 02:42:24;;;;;;;13.50;6.83;;;;;1.00;96710.00;;;;8301122;28;20256;-72
2023/01/28 02:51:05;;;;;;;20.57;8.00;;;;;1.00;96711.00;;;;8301981;28;20226;-72
2023/01/28 02:55:13;;;;;;;24.87;10.17;;;;;1.00;96712.00;;;;8301112;28;20205;-72
2023/01/28 02:59:32;;;;;;;23.30;9.87;;;;;1.00;96713.00;;;;8301439;28;20709;-71
2023/01/28 03:03:45;;;;;;;23.00;9.93;;;;;1.10;96715.00;;;;8307255;22;20244;-73
2023/01/28 03:07:49;;;;;;;24.33;9.70;;;;;1.10;96714.00;;;;8299000;28;20568;-73
2023/01/28 03:38:41;;;;;;;22.00;9.63;;;;;1.10;96719.00;;;;8289217;28;20204;-72
2023/01/28 03:42:44;;;;;;;24.50;9.67;;;;;1.10;96722.00;;;;8285870;28;20908;-73
2023/01/28 03:46:48;;;;;;;21.77;9.63;;;;;1.10;96710.00;;;;8286799;28;20214;-73
2023/01/28 03:50:52;;;;;;;21.37;9.33;;;;;1.10;96731.00;;;;8291553;28;20270;-74
2023/01/28 03:54:59;;;;;;;24.73;10.40;;;;;1.10;96728.00;;;;8284743;28;20210;-78
2023/01/28 03:59:03;;;;;;;20.37;10.03;;;;;1.20;96743.00;;;;8276626;28;20255;-73
2023/01/28 04:03:14;;;;;;;25.13;10.13;;;;;1.20;96725.00;;;;8293753;28;20277;-72
2023/01/28 04:07:19;;;;;;;25.87;9.80;;;;;1.20;96722.00;;;;8282923;28;20685;-73
2023/01/28 04:11:26;;;;;;;24.07;10.00;;;;;1.20;96718.00;;;;8285747;28;20207;-71
2023/01/28 04:15:35;;;;;;;23.97;11.20;;;;;1.20;96743.00;;;;8298993;28;20205;-73
2023/01/28 04:19:39;;;;;;;25.33;10.67;;;;;1.20;96741.00;;;;8284152;28;20285;-71
2023/01/28 04:23:42;;;;;;;25.90;11.50;;;;;1.30;96744.00;;;;8299877;28;20230;-72
2023/01/28 04:27:46;;;;;;;22.20;10.43;;;;;1.30;96740.00;;;;8291684;28;20211;-75
2023/01/28 04:31:49;;;;;;;24.90;10.43;;;;;1.30;96749.00;;;;8295362;28;20970;-73
2023/01/28 04:35:52;;;;;;;31.17;11.97;;;;;1.20;96750.00;;;;8298068;28;20202;-72
2023/01/28 04:39:58;;;;;;;29.60;11.67;;;;;1.20;96754.00;;;;8290361;28;20745;-72
2023/01/28 04:44:02;;;;;;;30.50;12.77;;;;;1.20;96756.00;;;;8295208;28;20607;-73
2023/01/28 04:48:07;;;;;;;31.00;12.20;;;;;1.20;96762.00;;;;8291870;28;20242;-72
2023/01/28 04:52:10;;;;;;;27.97;11.47;;;;;1.20;96755.00;;;;8295756;28;20278;-74
2023/01/28 04:56:16;;;;;;;26.00;11.33;;;;;1.10;96755.00;;;;8295877;28;20653;-73
2023/01/28 05:00:23;;;;;;;27.17;10.53;;;;;1.10;96753.00;;;;8291847;28;20229;-73
2023/01/28 05:04:29;;;;;;;19.50;8.17;;;;;1.10;96752.00;;;;8290495;28;20235;-72
2023/01/28 05:08:32;;;;;;;26.30;11.77;;;;;1.10;96752.00;;;;8289424;28;20943;-73
2023/01/28 05:12:35;;;;;;;24.03;10.50;;;;;1.10;96759.00;;;;8297464;28;20632;-71
2023/01/28 05:16:41;;;;;;;21.57;10.20;;;;;1.10;96761.00;;;;8309724;28;20229;-71
2023/01/28 05:20:45;;;;;;;25.47;11.37;;;;;1.10;96751.00;;;;8292834;28;20295;-71
2023/01/28 05:24:51;;;;;;;31.83;12.77;;;;;1.20;96753.00;;;;8295708;28;20199;-71
2023/01/28 05:28:56;;;;;;;29.43;11.77;;;;;1.20;96757.00;;;;8304337;28;20210;-72
2023/01/28 05:33:02;;;;;;;25.13;11.80;;;;;1.20;96766.00;;;;8297353;28;20242;-71
2023/01/28 05:37:05;;;;;;;22.97;10.20;;;;;1.20;96762.00;;;;8291835;28;20211;-72
2023/01/28 05:41:09;;;;;;;28.37;11.60;;;;;1.20;96764.00;;;;8294604;28;20231;-71
2023/01/28 05:45:14;;;;;;;23.40;10.53;;;;;1.20;96762.00;;;;8290648;28;20202;-72
2023/01/28 05:49:19;;;;;;;24.67;10.43;;;;;1.30;96766.00;;;;8287493;28;20286;-73
2023/01/28 05:53:22;;;;;;;21.93;10.17;;;;;1.30;96765.00;;;;8298048;28;20228;-72
2023/01/28 05:57:25;;;;;;;26.67;9.83;;;;;1.20;96766.00;;;;8291072;28;20231;-72
2023/01/28 06:01:30;;;;;;;22.40;10.50;;;;;1.30;96771.00;;;;8292193;28;20243;-73
2023/01/28 06:05:35;;;;;;;30.20;12.47;;;;;1.30;96779.00;;;;8292565;28;21025;-71
2023/01/28 06:09:38;;;;;;;25.20;11.33;;;;;1.30;96783.00;;;;8292842;28;20202;-72
2023/01/28 06:13:43;;;;;;;23.70;10.27;;;;;1.30;96790.00;;;;8291470;28;20203;-72
2023/01/28 06:17:47;;;;;;;24.63;10.00;;;;;1.30;96793.00;;;;8288122;28;20685;-73
2023/01/28 06:21:55;;;;;;;18.33;9.67;;;;;1.30;96791.00;;;;8290766;28;20237;-71
2023/01/28 06:25:58;;;;;;;23.50;9.73;;;;;1.30;96803.00;;;;8288239;28;20930;-72
2023/01/28 06:30:05;;;;;;;24.27;10.00;;;;;1.30;96792.00;;;;8285841;28;20257;-71
2023/01/28 06:34:10;;;;;;;23.77;10.47;;;;;1.30;96805.00;;;;8288504;28;20207;-73
2023/01/28 06:38:15;;;;;;;22.67;9.80;;;;;1.40;96807.00;;;;8290969;28;20203;-71
2023/01/28 06:42:19;;;;;;;24.50;10.17;;;;;1.40;96813.00;;;;8290211;28;20226;-73
2023/01/28 06:46:24;;;;;;;25.20;10.57;;;;;1.40;96822.00;;;;8287917;28;20250;-71
2023/01/28 06:50:29;;;;;;;22.27;9.13;;;;;1.50;96815.00;;;;8289851;28;20196;-70
2023/01/28 06:54:33;;;;;;;23.33;10.33;;;;;1.50;96829.00;;;;8288985;28;20203;-71
2023/01/28 06:58:36;;;;;;;25.70;10.37;;;;;1.50;96820.00;;;;8289204;28;20253;-72
2023/01/28 07:02:53;;;;;;;21.37;10.03;;;;;1.50;96825.00;;;;8298068;28;20280;-71
2023/01/28 07:06:58;;;;;;;28.00;11.20;;;;;1.40;96843.00;;;;8288025;28;20211;-70
2023/01/28 07:11:05;;;;;;;24.17;10.57;;;;;1.50;96847.00;;;;8290782;28;20199;-70
2023/01/28 07:15:10;;;;;;;25.70;10.43;;;;;1.50;96842.00;;;;8279289;28;20214;-72
2023/01/28 07:19:14;;;;;;;21.00;9.57;;;;;1.50;96846.00;;;;8278030;28;20727;-71
2023/01/28 07:23:17;;;;;;;24.57;9.93;;;;;1.50;96857.00;;;;8286166;28;20259;-70
2023/01/28 07:27:22;;;;;;;24.63;11.40;;;;;1.50;96857.00;;;;8287776;28;20197;-70
2023/01/28 07:31:25;;;;;;;22.90;10.50;;;;;1.50;96854.00;;;;8286326;28;20598;-70
2023/01/28 07:35:28;;;;;;;26.40;11.63;;;;;1.60;96855.00;;;;8288970;28;20206;-72
2023/01/28 07:39:33;;;;;;;24.47;11.70;;;;;1.60;96863.00;;;;8289770;28;20193;-71
2023/01/28 07:43:43;;;;;;;28.93;10.93;;;;;1.60;96872.00;;;;8286200;28;20337;-72
2023/01/28 07:47:53;;;;;;;27.00;11.23;;;;;1.70;96863.00;;;;8292885;28;20202;-71
2023/01/28 07:51:58;;;;;;;27.50;10.83;;;;;1.70;96876.00;;;;8287976;28;20196;-71
2023/01/28 07:56:02;;;;;;;24.40;11.27;;;;;1.70;96870.00;;;;8303986;28;20242;-72
2023/01/28 08:00:07;;;;;;;26.47;10.07;;;;;1.70;96878.00;;;;8301013;28;20701;-72
2023/01/28 08:04:11;;;;;;;22.07;10.13;;;;;1.80;96879.00;;;;8295341;28;20242;-72
2023/01/28 08:08:15;;;;;;;24.90;10.80;;;;;1.70;96875.00;;;;8281417;28;20223;-72
2023/01/28 08:12:24;;;;;;;28.47;11.97;;;;;1.80;96871.00;;;;8291145;28;20238;-72
2023/01/28 08:16:30;;;;;;;21.87;9.47;;;;;1.90;96866.00;;;;8285307;28;20199;-72
2023/01/28 08:20:35;;;;;;;27.33;11.10;;;;;2.00;96882.00;;;;8293800;28;20231;-71
2023/01/28 08:24:44;;;;;;;26.67;10.93;;;;;2.10;96888.00;;;;8286136;28;20654;-72
2023/01/28 08:28:50;;;;;;;24.37;10.30;;;;;2.20;96894.00;;;;8283036;28;20208;-71
2023/01/28 08:33:00;;;;;;;25.97;11.37;;;;;2.20;96904.00;;;;8286220;28;20245;-72
2023/01/28 08:37:04;;;;;;;22.70;11.20;;;;;2.20;96904.00;;;;8283860;28;20615;-71
2023/01/28 08:41:09;;;;;;;27.37;12.17;;;;;2.20;96900.00;;;;8280597;28;20250;-72
2023/01/28 08:45:15;;;;;;;25.97;11.80;;;;;2.20;96891.00;;;;8279858;28;20200;-72
2023/01/28 08:49:21;;;;;;;21.87;10.37;;;;;2.30;96893.00;;;;8294540;28;20643;-72
2023/01/28 08:53:24;;;;;;;26.90;11.97;;;;;2.40;96888.00;;;;8276918;28;20252;-72
2023/01/28 08:57:27;;;;;;;31.77;11.67;;;;;2.40;96894.00;;;;8288675;28;20292;-72
2023/01/28 09:01:30;;;;;;;31.67;11.97;;;;;2.40;96889.00;;;;8290788;28;20237;-73
2023/01/28 09:05:36;;;;;;;24.83;11.13;;;;;2.50;96899.00;;;;8283518;28;20294;-72
2023/01/28 09:09:41;;;;;;;24.60;11.00;;;;;2.50;96905.00;;;;8282935;28;20324;-72
2023/01/28 09:13:44;;;;;;;26.83;11.53;;;;;2.50;96907.00;;;;8285515;28;20306;-72
2023/01/28 09:17:47;;;;;;;27.23;11.63;;;;;2.50;96915.00;;;;8291005;28;21208;-71
2023/01/28 09:21:52;;;;;;;25.03;11.03;;;;;2.50;96910.00;;;;8289672;28;20222;-71
2023/01/28 09:26:00;;;;;;;25.43;12.10;;;;;2.60;96906.00;;;;8289489;28;20208;-72
2023/01/28 09:30:05;;;;;;;24.40;11.63;;;;;2.60;96917.00;;;;8290048;28;20297;-72
2023/01/28 09:34:09;;;;;;;26.43;11.30;;;;;2.50;96920.00;;;;8290520;28;20204;-72
2023/01/28 09:38:15;;;;;;;29.10;12.17;;;;;2.50;96921.00;;;;8289291;28;20631;-72
2023/01/28 09:42:39;;;;;;;28.55;14.50;;;;;2.50;96910.00;;;;8291426;28;20512;-71
2023/01/28 09:46:44;;;;;;;27.20;12.47;;;;;2.80;96923.00;;;;8283775;28;20209;-72
2023/01/28 09:50:53;;;;;;;22.63;10.73;;;;;2.70;96923.00;;;;8287800;28;20205;-72
2023/01/28 09:55:02;;;;;;;26.67;11.03;;;;;2.70;96929.00;;;;8289101;28;20258;-75
2023/01/28 09:59:17;;;;;;;23.57;10.47;;;;;2.70;96930.00;;;;8293159;28;20544;-73
2023/01/28 10:03:31;;;;;;;30.37;11.43;;;;;2.70;96935.00;;;;8290789;28;20681;-74
2023/01/28 10:07:41;;;;;;;26.57;11.53;;;;;2.60;96937.00;;;;8282077;28;20250;-75
2023/01/28 10:12:03;;;;;;;32.08;14.75;;;;;2.70;96928.00;;;;8290168;28;20517;-73
2023/01/28 10:16:17;;;;;;;25.63;13.20;;;;;2.80;96938.00;;;;8287321;28;20260;-75
2023/01/28 10:20:29;;;;;;;23.23;11.00;;;;;2.70;96927.00;;;;8286615;28;20815;-72
2023/01/28 10:24:35;;;;;;;28.17;11.83;;;;;2.60;96932.00;;;;8290122;28;20722;-72
2023/01/28 10:28:40;;;;;;;27.23;11.53;;;;;2.60;96929.00;;;;8303955;28;20211;-78
2023/01/28 10:32:49;;;;;;;28.93;12.07;;;;;2.60;96930.00;;;;8286502;28;20805;-77
2023/01/28 10:36:54;;;;;;;26.13;12.60;;;;;2.60;96930.00;;;;8284294;28;20598;-79
2023/01/28 10:41:04;;;;;;;27.53;11.00;;;;;2.50;96932.00;;;;8283666;28;20328;-79
2023/01/28 10:45:20;;;;;;;32.67;12.33;;;;;2.50;96935.00;;;;8285431;28;20207;-79
2023/01/28 10:49:27;;;;;;;24.13;10.07;;;;;2.50;96931.00;;;;8294623;28;20280;-79
2023/01/28 10:53:38;;;;;;;28.77;11.93;;;;;2.50;96930.00;;;;8298260;28;20231;-78
2023/01/28 10:57:44;;;;;;;29.60;12.87;;;;;2.40;96918.00;;;;8295146;28;20237;-80
2023/01/28 11:01:53;;;;;;;23.73;11.07;;;;;2.50;96926.00;;;;8292773;28;20256;-79
2023/01/28 11:05:59;;;;;;;26.27;11.67;;;;;2.50;96918.00;;;;8285808;28;20198;-79
2023/01/28 11:10:02;;;;;;;24.10;11.03;;;;;2.60;96930.00;;;;8294483;28;20201;-79
2023/01/28 11:14:05;;;;;;;24.73;11.40;;;;;2.60;96920.00;;;;8300592;28;20265;-80
2023/01/28 11:18:18;;;;;;;27.70;11.57;;;;;2.60;96922.00;;;;8292051;28;20401;-78
2023/01/28 11:22:32;;;;;;;21.43;10.20;;;;;2.60;96924.00;;;;8292398;28;20223;-83
2023/01/28 11:26:38;;;;;;;22.67;10.63;;;;;2.50;96920.00;;;;8297238;28;20199;-80
2023/01/28 11:30:44;;;;;;;25.37;10.90;;;;;2.50;96922.00;;;;8292238;28;20653;-79
2023/01/28 11:34:53;;;;;;;24.17;10.87;;;;;2.50;96928.00;;;;8286258;28;20286;-78
2023/01/28 11:39:01;;;;;;;21.37;9.87;;;;;2.40;96922.00;;;;8292769;28;20266;-78
2023/01/28 11:43:11;;;;;;;25.53;10.70;;;;;2.50;96929.00;;;;8293160;28;21028;-78
2023/01/28 11:47:28;;;;;;;24.23;10.60;;;;;2.40;96920.00;;;;8291113;28;20337;-79
2023/01/28 11:51:42;;;;;;;25.37;11.90;;;;;2.40;96916.00;;;;8288794;28;20214;-80
2023/01/28 11:55:58;;;;;;;23.73;9.93;;;;;2.50;96919.00;;;;8286195;28;20205;-80
2023/01/28 12:00:28;;;;;;;22.77;10.60;;;;;2.50;96921.00;;;;8283798;28;20213;-80
2023/01/28 12:04:47;;;;;;;24.27;10.57;;;;;2.50;96913.00;;;;8284201;28;20966;-80
2023/01/28 12:09:05;;;;;;;24.13;10.43;;;;;2.50;96909.00;;;;8283955;28;20646;-79
2023/01/28 12:13:34;;;;;;;22.73;10.27;;;;;2.40;96905.00;;;;8289150;28;20209;-80
2023/01/28 12:17:59;;;;;;;19.50;10.43;;;;;2.50;96912.00;;;;8282936;28;20211;-79
2023/01/28 12:22:27;;;;;;;19.13;8.97;;;;;2.50;96901.00;;;;8287744;28;20228;-78
2023/01/28 12:26:45;;;;;;;19.83;9.27;;;;;2.50;96894.00;;;;8282740;28;20204;-82
2023/01/28 12:31:14;;;;;;;18.53;9.07;;;;;2.70;96908.00;;;;8282717;28;20246;-80
2023/01/28 12:35:50;;;;;;;17.57;8.33;;;;;2.60;96907.00;;;;8280709;28;20199;-79
2023/01/28 12:40:14;;;;;;;18.20;8.07;;;;;2.70;96905.00;;;;8282561;28;20647;-81
2023/01/28 12:44:24;;;;;;;15.47;7.97;;;;;2.70;96907.00;;;;8282331;28;20334;-81
2023/01/28 12:48:33;;;;;;;15.87;7.73;;;;;2.60;96909.00;;;;8283509;28;20204;-81
2023/01/28 12:52:43;;;;;;;13.17;7.30;;;;;2.60;96906.00;;;;8285208;28;20200;-82
2023/01/28 12:56:52;;;;;;;14.80;7.00;;;;;2.60;96899.00;;;;8285461;28;20725;-77
2023/01/28 13:01:07;;;;;;;14.37;6.93;;;;;2.60;96901.00;;;;8278409;28;20723;-77
2023/01/28 13:05:16;;;;;;;11.37;6.87;;;;;2.60;96905.00;;;;8281679;28;20737;-77
2023/01/28 13:09:22;;;;;;;11.90;6.27;;;;;2.50;96904.00;;;;8282184;28;20716;-77
2023/01/28 13:13:30;;;;;;;14.23;6.47;;;;;2.50;96908.00;;;;8281080;28;20202;-78
2023/01/28 13:17:35;;;;;;;14.20;6.43;;;;;2.50;96908.00;;;;8283163;28;20259;-78
2023/01/28 13:21:39;;;;;;;11.80;6.57;;;;;2.50;96911.00;;;;8282646;28;20681;-78
2023/01/28 13:25:53;;;;;;;10.07;6.07;;;;;2.50;96915.00;;;;8287316;28;20227;-77
2023/01/28 13:30:05;;;;;;;8.93;5.83;;;;;2.40;96915.00;;;;8285238;28;20200;-78
2023/01/28 13:34:31;;;;;;;12.27;6.20;;;;;2.40;96905.00;;;;8293171;28;20549;-78
2023/01/28 13:38:41;;;;;;;10.50;5.13;;;;;2.40;96918.00;;;;8289106;28;20207;-78
2023/01/28 13:42:47;;;;;;;8.97;5.73;;;;;2.40;96914.00;;;;8289112;28;20235;-79
2023/01/28 13:46:53;;;;;;;9.43;6.70;;;;;2.30;96925.00;;;;8295860;28;20200;-78
2023/01/28 13:51:03;;;;;;;10.33;6.37;;;;;2.30;96923.00;;;;8295167;28;20539;-78
2023/01/28 13:55:14;;;;;;;9.83;6.77;;;;;2.30;96927.00;;;;8290844;28;20263;-78
2023/01/28 13:59:51;;;;;;;15.13;7.03;;;;;2.30;96935.00;;;;8288362;28;20521;-78
2023/01/28 14:04:31;;;;;;;10.67;6.40;;;;;2.20;96936.00;;;;8289107;28;20279;-78
2023/01/28 14:08:57;;;;;;;10.00;6.17;;;;;2.30;96948.00;;;;8268559;28;20542;-77
2023/01/28 14:13:36;;;;;;;8.97;5.37;;;;;2.30;96938.00;;;;8285921;28;20225;-78
2023/01/28 14:17:45;;;;;;;12.00;6.40;;;;;2.30;96941.00;;;;8287962;28;20266;-78
2023/01/28 14:21:48;;;;;;;10.50;6.40;;;;;2.30;96954.00;;;;8292627;28;20638;-78
2023/01/28 14:26:07;;;;;;;11.97;5.90;;;;;2.40;96949.00;;;;8289397;28;20694;-78
2023/01/28 14:30:20;;;;;;;10.97;6.97;;;;;2.40;96955.00;;;;8297573;28;20201;-78
2023/01/28 14:34:29;;;;;;;9.40;6.10;;;;;2.40;96947.00;;;;8290642;28;20906;-78
2023/01/28 14:38:40;;;;;;;12.77;6.50;;;;;2.40;96953.00;;;;8285319;28;20658;-77
2023/01/28 14:42:47;;;;;;;9.40;5.90;;;;;2.40;96959.00;;;;8293989;28;20350;-78
2023/01/28 14:47:20;;;;;;;11.60;5.90;;;;;2.40;96958.00;;;;8288907;28;20197;-80
2023/01/28 14:51:48;;;;;;;13.07;6.83;;;;;2.30;96961.00;;;;8278116;28;20294;-77
2023/01/28 14:56:08;;;;;;;7.57;5.67;;;;;2.30;96967.00;;;;8286968;28;20239;-77
2023/01/28 15:00:22;;;;;;;11.57;6.73;;;;;2.30;96966.00;;;;8286433;28;20274;-77
2023/01/28 15:04:27;;;;;;;10.47;5.57;;;;;2.30;96971.00;;;;8286298;28;20303;-78
2023/01/28 15:08:31;;;;;;;9.63;5.37;;;;;2.30;96970.00;;;;8283574;28;20666;-76
2023/01/28 15:12:36;;;;;;;10.27;5.87;;;;;2.30;96972.00;;;;8283455;28;20209;-74
2023/01/28 15:16:48;;;;;;;8.10;5.50;;;;;2.20;96987.00;;;;8280139;28;20209;-76
2023/01/28 15:20:55;;;;;;;12.20;6.67;;;;;2.20;97000.00;;;;8280701;28;20201;-76
2023/01/28 15:25:01;;;;;;;11.00;6.60;;;;;2.20;97000.00;;;;8280468;28;20294;-75
2023/01/28 15:29:04;;;;;;;11.40;6.30;;;;;2.20;96999.00;;;;8283012;28;20200;-75
2023/01/28 15:33:14;;;;;;;9.83;6.77;;;;;2.20;97003.00;;;;8285494;28;20653;-75
2023/01/28 15:37:18;;;;;;;12.57;5.97;;;;;2.20;97007.00;;;;8289359;28;20564;-74
2023/01/28 15:41:26;;;;;;;12.17;7.03;;;;;2.20;97011.00;;;;8281694;28;20242;-79
2023/01/28 15:45:32;;;;;;;16.17;6.93;;;;;2.10;97020.00;;;;8287461;28;20788;-76
2023/01/28 15:49:42;;;;;;;14.23;5.43;;;;;2.10;97019.00;;;;8274127;28;20268;-75
2023/01/28 15:53:47;;;;;;;6.97;4.87;;;;;2.10;97019.00;;;;8279016;28;20272;-76
2023/01/28 15:57:53;;;;;;;5.97;4.87;;;;;2.10;97017.00;;;;8286320;28;20204;-75
2023/01/28 16:02:18;;;;;;;7.73;5.50;;;;;2.00;97025.00;;;;8283252;28;21006;-75
2023/01/28 16:06:23;;;;;;;6.73;4.57;;;;;2.00;97025.00;;;;8286015;28;20311;-73
2023/01/28 16:10:30;;;;;;;8.10;4.37;;;;;2.00;97034.00;;;;8294176;28;20257;-73
2023/01/28 16:14:42;;;;;;;7.80;4.60;;;;;2.00;97027.00;;;;8279476;28;20214;-74
2023/01/28 16:18:50;;;;;;;6.27;4.23;;;;;1.90;97033.00;;;;8278508;28;20207;-76
2023/01/28 16:22:56;;;;;;;7.00;4.63;;;;;1.90;97043.00;;;;8279014;28;20290;-77
2023/01/28 16:27:01;;;;;;;6.77;4.97;;;;;1.90;97051.00;;;;8272210;28;20350;-74
2023/01/28 16:31:10;;;;;;;7.93;4.60;;;;;1.80;97053.00;;;;8272568;28;20212;-75
2023/01/28 16:35:18;;;;;;;11.77;5.30;;;;;1.80;97065.00;;;;8276739;28;20656;-76
2023/01/28 16:39:25;;;;;;;8.30;4.50;;;;;1.80;97074.00;;;;8276166;28;20263;-76
2023/01/28 16:43:28;;;;;;;9.00;5.90;;;;;1.80;97070.00;;;;8276539;28;20767;-76
2023/01/28 16:47:34;;;;;;;7.50;4.57;;;;;1.70;97057.00;;;;8278027;28;20260;-76
2023/01/28 16:51:38;;;;;;;6.47;4.57;;;;;1.70;97063.00;;;;8279776;28;20222;-75
2023/01/28 16:55:43;;;;;;;6.90;4.13;;;;;1.70;97066.00;;;;8274862;28;20212;-76
2023/01/28 16:59:53;;;;;;;8.20;4.70;;;;;1.70;97069.00;;;;8272807;28;20635;-76
2023/01/28 17:03:58;;;;;;;4.37;3.97;;;;;1.60;97061.00;;;;8272746;28;20336;-76
2023/01/28 17:08:14;;;;;;;5.67;4.03;;;;;1.60;97067.00;;;;8278368;28;20267;-75
2023/01/28 17:12:18;;;;;;;7.60;4.27;;;;;1.60;97067.00;;;;8276897;28;20261;-76
2023/01/28 17:16:24;;;;;;;4.93;3.30;;;;;1.50;97071.00;;;;8275782;28;20211;-76
2023/01/28 17:20:27;;;;;;;7.47;4.27;;;;;1.60;97075.00;;;;8272986;28;20287;-76
2023/01/28 17:24:32;;;;;;;8.03;5.20;;;;;1.50;97066.00;;;;8274363;28;20233;-78
2023/01/28 17:28:37;;;;;;;5.90;3.80;;;;;1.50;97069.00;;;;8283417;28;20204;-79
2023/01/28 17:32:40;;;;;;;4.73;4.10;;;;;1.50;97079.00;;;;8285826;28;20549;-77
2023/01/28 17:36:44;;;;;;;4.50;3.57;;;;;1.50;97068.00;;;;8284027;28;20212;-76
2023/01/28 17:40:47;;;;;;;4.73;3.63;;;;;1.40;97074.00;;;;8290474;28;20208;-77
2023/01/28 17:44:52;;;;;;;5.40;3.83;;;;;1.40;97077.00;;;;8295290;28;20904;-76
2023/01/28 17:48:56;;;;;;;4.60;3.80;;;;;1.40;97083.00;;;;8297740;28;20704;-77
2023/01/28 17:53:02;;;;;;;6.27;4.33;;;;;1.40;97082.00;;;;8290142;28;20767;-77
2023/01/28 17:57:05;;;;;;;4.77;3.70;;;;;1.40;97091.00;;;;8282238;28;20208;-77
2023/01/28 18:01:10;;;;;;;9.37;5.33;;;;;1.40;97081.00;;;;8283596;28;21821;-75
2023/01/28 18:05:13;;;;;;;7.77;4.87;;;;;1.40;97079.00;;;;8284850;28;20231;-78
2023/01/28 18:09:18;;;;;;;12.73;5.10;;;;;1.30;97080.00;;;;8281333;28;20239;-77
2023/01/28 18:13:26;;;;;;;10.17;5.10;;;;;1.30;97081.00;;;;8287115;28;20202;-79
2023/01/28 18:17:31;;;;;;;10.80;5.20;;;;;1.30;97080.00;;;;8285833;28;20244;-81
2023/01/28 18:21:36;;;;;;;9.93;5.27;;;;;1.30;97094.00;;;;8283493;28;20199;-81
2023/01/28 18:25:59;;;;;;;10.27;5.50;;;;;1.40;97092.00;;;;8281609;28;20230;-79
2023/01/28 18:30:02;;;;;;;1999.90;999.90;;;;;1.40;97088.00;;;;8292632;28;20197;-76
2023/01/28 18:34:10;;;;;;;186.97;54.73;;;;;1.50;97100.00;;;;8282786;28;20572;-77
2023/01/28 18:38:18;;;;;;;270.37;59.00;;;;;1.60;97086.00;;;;8288439;28;20195;-79
2023/01/28 18:42:24;;;;;;;187.10;40.67;;;;;1.70;97086.00;;;;8280224;28;20212;-77
2023/01/28 18:46:29;;;;;;;13.13;6.87;;;;;1.70;97085.00;;;;8291204;28;20284;-77
2023/01/28 18:50:34;;;;;;;13.37;6.47;;;;;1.70;97089.00;;;;8281630;28;20628;-76
2023/01/28 18:54:37;;;;;;;9.50;5.17;;;;;1.60;97087.00;;;;8275007;28;20227;-73
2023/01/28 18:58:42;;;;;;;9.07;5.23;;;;;1.60;97097.00;;;;8282148;28;20254;-80
2023/01/28 19:02:51;;;;;;;7.60;4.93;;;;;1.50;97096.00;;;;8278232;28;20227;-74
2023/01/28 19:06:57;;;;;;;9.50;5.10;;;;;1.40;97085.00;;;;8259265;28;20226;-78
2023/01/28 19:11:00;;;;;;;7.63;4.80;;;;;1.40;97102.00;;;;8282369;28;20207;-84
2023/01/28 19:15:10;;;;;;;10.77;6.37;;;;;1.40;97107.00;;;;8284264;28;20195;-77
2023/01/28 19:19:19;;;;;;;24.47;14.67;;;;;1.60;97111.00;;;;8289207;28;20253;-74
2023/01/28 19:23:26;;;;;;;54.13;30.87;;;;;1.60;97106.00;;;;8282650;28;20611;-74
2023/01/28 19:27:31;;;;;;;9.43;6.73;;;;;1.70;97110.00;;;;8277258;28;20226;-77
2023/01/28 19:31:37;;;;;;;7.70;4.80;;;;;1.70;97117.00;;;;8277133;28;20216;-77
2023/01/28 19:35:40;;;;;;;7.37;4.80;;;;;1.70;97124.00;;;;8276253;28;20655;-78
2023/01/28 19:39:46;;;;;;;9.53;5.83;;;;;1.60;97125.00;;;;8277456;28;20232;-75
2023/01/28 19:43:51;;;;;;;8.80;5.60;;;;;1.50;97121.00;;;;8280695;28;20200;-76
2023/01/28 19:47:54;;;;;;;10.17;6.53;;;;;1.50;97141.00;;;;8281056;28;20265;-74
2023/01/28 19:51:57;;;;;;;9.80;5.27;;;;;1.40;97131.00;;;;8274265;28;20729;-72
2023/01/28 19:56:07;;;;;;;6.73;4.97;;;;;1.40;97135.00;;;;8276156;28;20200;-78
2023/01/28 20:00:12;;;;;;;7.90;4.70;;;;;1.30;97137.00;;;;8279566;28;20214;-74
2023/01/28 20:04:15;;;;;;;4.33;3.73;;;;;1.30;97130.00;;;;8276066;28;20239;-77
2023/01/28 20:08:18;;;;;;;13.00;5.73;;;;;1.30;97143.00;;;;8275807;28;20277;-75
2023/01/28 20:12:29;;;;;;;4.67;3.77;;;;;1.20;97150.00;;;;8277464;28;20229;-73
2023/01/28 20:16:34;;;;;;;7.07;4.90;;;;;1.10;97146.00;;;;8284090;28;20211;-75
2023/01/28 20:20:37;;;;;;;8.87;4.70;;;;;1.10;97153.00;;;;8282595;28;20204;-75
2023/01/28 20:24:40;;;;;;;7.40;4.80;;;;;1.10;97142.00;;;;8273572;28;20197;-74
2023/01/28 20:28:45;;;;;;;9.17;4.90;;;;;1.10;97149.00;;;;8275266;28;20248;-79
2023/01/28 20:32:49;;;;;;;6.50;4.20;;;;;1.10;97162.00;;;;8279675;28;20205;-74
2023/01/28 20:36:53;;;;;;;9.13;4.97;;;;;1.10;97168.00;;;;8274223;28;20293;-76
2023/01/28 20:40:56;;;;;;;8.27;4.70;;;;;1.10;97157.00;;;;8277048;28;20198;-76
2023/01/28 20:45:01;;;;;;;11.53;5.93;;;;;1.00;97158.00;;;;8276218;28;20292;-78
2023/01/28 20:49:06;;;;;;;12.40;5.50;;;;;1.00;97165.00;;;;8279835;28;20196;-75
2023/01/28 20:53:10;;;;;;;17.93;6.00;;;;;1.00;97165.00;;;;8276528;28;20198;-75
2023/01/28 20:57:13;;;;;;;14.10;6.57;;;;;1.00;97176.00;;;;8279130;28;20261;-77
2023/01/28 21:01:27;;;;;;;6.70;4.43;;;;;0.90;97182.00;;;;8271535;28;20212;-75
2023/01/28 21:05:31;;;;;;;13.23;5.87;;;;;0.90;97190.00;;;;8295737;28;20230;-75
2023/01/28 21:09:34;;;;;;;10.20;5.90;;;;;0.90;97187.00;;;;8295178;28;20207;-75